Buckhannon, WV

4:33 PM EST on December 02, 2016 (GMT -0500)
bailey ridge | | Change Station

Elev 1739 ft 38.96 °N, 80.19 °W | Updated 2 seconds ago

Haze
Haze
33.4 °F
Feels Like 33 °F
N
2.0
Wind Variable Wind from WSW
Gusts 6.9 mph

Today
High -- | Low -- °F
--% Chance of Precip.
Yesterday
High -- | Low -- °F
Precip. -- in
Pressure 30.16 in
Visibility 6.0 miles
Clouds Mostly Cloudy 1400 ft
Mostly Cloudy 2200 ft
Overcast 2800 ft
Windchill 33 °F
Dew Point 28 °F
Humidity 81%
Rainfall 0.00 in
Snow Depth Not available.
7:22 AM 4:58 PM
Waxing Crescent, 10% visible
METAR KCKB 022053Z 24010G17KT 6SM HZ BKN014 BKN022 OVC028 02/M01 A3015 RMK AO2 SLP213 T00171011 53011
Pressure 30.16 in
Visibility 6.0 miles
Clouds Mostly Cloudy 1400 ft
Mostly Cloudy 2200 ft
Overcast 2800 ft
Windchill 33 °F
Dew Point 28 °F
Humidity 81%
Rainfall 0.00 in
Snow Depth Not available.
7:22 AM 4:58 PM
Waxing Crescent, 10% visible
METAR KCKB 022053Z 24010G17KT 6SM HZ BKN014 BKN022 OVC028 02/M01 A3015 RMK AO2 SLP213 T00171011 53011

10-Day Weather Forecast

Almanac

Astronomy

Dec. 02, 2016 Rise Set
Actual Time
Civil Twilight
Nautical Twilight
Astronomical Twilight
Moon
Length of Visible Light
Length of Day
Tomorrow will be .
, % of the Moon is Illuminated

Today's Extremes

State Highs State Lows

Community

WunderPhotos

Upload Photos

1,955,369 photos uploaded!

WunderBlog® & News

Nearby

Air Quality

  Air Quality AQ Index Pollutant
Not available.

Snow Depth

Station Depth Elevation

Earthquake Activity

City Distance Mag. Time & Date
Minimum magnitude displayed is 2.5.

Coastal Water Temperatures

Place Temperature

Stations

Nearby Weather Stations

Station Location Temp. Windchill Dew Point Humidity Wind Precip. Elev Updated Type
                   

Watches & Warnings

There are currently no watches in effect.